Airfield :
LOGIN :

Register | Disclaimer

   EN    FR    IT 

 










Legend :    VFR   Marginal VFR   IFR   Intensive IFR   Very Intensive IFR
Visi :
Ceiling :
>= 8 km
>= 3000ft
5 to 8 km
1000 to 3000 ft
1500m to 5 km
500 to 1000 ft
800 to 1500m
200 to 500 ft
< 800m
< 200 ft
Symbols :   Thunderstorms  Fog  Heavy snow  Heavy precipitations  Wind > 20 kt
SIGMETs :     Misc.  Thunderstorms  Icing  Turbulence  Mountain Waves  Volcanic Ashes






- Airport Elevation : 124 ft
- IATA code : RNS


LFRN - Rennes

CURRENT METAR :
  • 200600Z AUTO 09008KT 6000 OVC004 02/01 Q1011 TEMPO 3000 BR

EXPIRED METARs :
  • 200530Z AUTO 10009KT 6000 OVC004 02/01 Q1012 TEMPO 2000 BR
  • 200500Z AUTO 10008KT 6000 OVC004 02/01 Q1012 TEMPO 2000 BR
  • 200430Z AUTO 10007KT 6000 OVC004 02/01 Q1012 TEMPO 2000 BR
  • 200400Z AUTO 10007KT 6000 OVC005 02/01 Q1012 TEMPO 2000 BR
  • 200330Z AUTO 10006KT 6000 OVC005 02/02 Q1013 TEMPO 2000 BR

TAF TAF LFRN
Valid from the 20 at 06:00 until the 21 at 06:00 UTC


200500Z 2006/2106 11008KT 6000 BKN005
TEMPO 2006/2008 3000 BR BKN003
BECMG 2008/2011 9999 BKN010
BECMG 2011/2013 SCT010
TEMPO 2020/2103 3000 BR BKN005
BECMG 2103/2105 BKN010
TEMPO 2103/2106 4000 RA BKN005
ATIS : +33 2 99 67 72 50



MET'MAP, your aeronautical weather chart ! - Copyright ORBIFLY December 2007 - Disclaimer

ORBIFLY MET'MAP TEAM :

Programming & Development : Alexandra Zaïnal
Concept & Development : Baudouin d'Aumeries
Co-Development & Prog : Marc-Olivier Méhu
Technical & hardware support : Manuel Goepfert

Contact : metmap@orbifly.com




SOURCES & CREDITS :

   NOAA